Carlos Aguilar

Scout - Villarreal
4 Dez 2028
Montag
Verarbeitung

Persönlichkeit

Anpassungsfähigkeit (9) Ehrgeiz (5) Kontroverse (11) Loyalität (13) Druck (3) Professionalität (19) Fairness (17) Temperament (15)

Profil

Trainerstil Demokratisch
Lizenz Nationale A
Entschlossenheit 7
Menschenführung 15
Motivation 12
Disziplin 12
Arbeitszufriedenheit
100%
Ermüdung
0%
Rolle Scout
Gehalt 118.5K p/W
Vertrag 14.03.2030

Leistung

Verhalten Gut
Trainingseffektivität
63%
Spielerentwicklung
60%
Verletzungsprävention
65%
Taktische Umsetzung
50%

Letzte Ereignisse

Spieler begutachtet jetzt
Nahm an einer Scouting-Besprechung teil jetzt
Empfahl ein Transferziel jetzt
Spieler begutachtet jetzt
Spieler begutachtet jetzt
Spiel beobachtet jetzt
Spieler begutachtet jetzt
Spieler begutachtet 7T her

Aktuell beobachtet

195
Spieler Verein Status Fähigkeit Vertrauen Beobachtet Zuletzt beobachtet Letzte Stimme
Christos Mouzakitis Hull City Aktiv 138 / 143 40% 11 03.12.2028 -
Lisandro Piñero Banfield Aktiv 133 / 137 40% 13 03.12.2028 -
Mateus Mané Burnley Aktiv 144 / 158 40% 3 03.12.2028 -
Ryan McAidoo Oldham Athletic Verhandlung 132 / 140 40% 4 02.12.2028 -
Celías Ingenthron Platense Aktiv 113 / 132 40% 6 02.12.2028 -
Álvaro Montoro Botafogo Aktiv 142 / 135 40% 8 30.11.2028 -
Harry Gray Harrogate Town Aktiv 135 / 132 40% 4 30.11.2028 -
Giovanni Cantizano Fulham Aktiv 123 / 133 40% 2 30.11.2028 -
Tahiel Peralta Racing Club Aktiv 116 / 121 40% 7 28.11.2028 -
Alex Verón Vélez Aktiv 124 / 112 40% 6 28.11.2028 -
Estêvão Portsmouth Aktiv 154 / 153 40% 7 28.11.2028 -
Santiago Segovia Rosario Central Aktiv 116 / 130 40% 4 27.11.2028 -
Leandro Olima Atlético Tucumán Aktiv 98 / 119 40% 2 27.11.2028 -
Honest Ahanor Atalanta Aktiv 141 / 155 40% 16 26.11.2028 -
Lucca São Paulo Aktiv 123 / 127 40% 4 26.11.2028 -
Ibrahim Mbaye Queens Park Rangers Aktiv 142 / 145 40% 3 26.11.2028 -
Sebastian Rodriguez Houston Dynamo Aktiv 122 / 113 40% 8 25.11.2028 -
Rio Ngumoha Plymouth Argyle Aktiv 149 / 151 40% 4 25.11.2028 -
Franco Mastantuono Córdoba Aktiv 154 / 160 40% 6 24.11.2028 -
Giovanni Leoni Lincoln City Aktiv 151 / 157 40% 8 23.11.2028 -
Daniel Banjaqui Benfica Aktiv 133 / 131 40% 11 23.11.2028 -
Matías Arias Vélez Aktiv 118 / 122 40% 7 23.11.2028 -
Aarón Ochoa Málaga Aktiv 120 / 129 40% 2 23.11.2028 -
Babis Kostoulas Oxford United Aktiv 153 / 152 40% 6 22.11.2028 -
Mateo Aguiar Tigre Aktiv 116 / 124 40% 6 21.11.2028 -
Facundo Jainikoski Independiente Aktiv 111 / 114 40% 3 18.11.2028 -
Ayyoub Bouaddi Stoke City Aktiv 148 / 161 40% 3 18.11.2028 -
Jorge Salinas Racing Santander Aktiv 143 / 133 40% 8 17.11.2028 -
Geovany Quenda Watford Aktiv 158 / 156 40% 4 16.11.2028 -
Julian Hall Real Salt Lake Aktiv 118 / 132 40% 9 15.11.2028 -
Alejandro Almaraz NK Celje Aktiv 126 / 120 40% 2 14.11.2028 -
Joaquín Salas Reading Aktiv 98 / 109 40% 1 14.11.2028 -
Marc Bernal Sevilla Aktiv 158 / 159 40% 8 13.11.2028 -
Chris Rigg West Ham United Aktiv 142 / 153 40% 1 13.11.2028 -
Tomás Valentukonis Najran Aktiv 92 / 117 40% 1 12.11.2028 -
Matias Siltanen Malmo FF Aktiv 127 / 133 40% 3 07.11.2028 -
Veljko Milosavljević Bournemouth Aktiv 152 / 154 40% 1 07.11.2028 -
Luka Andrade Montevideo City Torque Aktiv 107 / 117 40% 3 31.10.2028 -
Alan Torterolo Defensor Sporting Aktiv 95 / 106 40% 1 24.10.2028 -
Tobías Ramírez River Plate Aktiv 137 / 126 40% 3 21.10.2028 -
Harrison Armstrong Ipswich Town Aktiv 135 / 148 40% 2 21.10.2028 -
Yan Diomandé Oviedo Aktiv 153 / 173 40% 3 18.10.2028 -
Trey Nyoni Rotherham United Aktiv 145 / 157 40% 13 16.10.2028 -
Diego Cheuquepal Racing Aktiv 92 / 98 40% 1 16.10.2028 -
Agustín Medina Lanús Aktiv 116 / 116 40% 4 12.10.2028 -
Axel Tape Bayer Leverkusen Aktiv 139 / 140 40% 2 12.10.2028 -
Luis Maturana Alianza Petrolera Aktiv 109 / 117 40% 1 12.10.2028 -
Aarón Martín Al-Qadisiyah Aktiv 116 / 118 40% 2 05.10.2028 -
Buba Sangaré Elche Aktiv 142 / 151 40% 1 05.10.2028 -
Peyton Miller New England Revolution Aktiv 103 / 109 40% 2 24.09.2028 -
Gustavo Lozano Metropolitanos Aktiv 97 / 97 40% 1 24.09.2028 -
Nadir Sánchez Central Córdoba SdE Aktiv 99 / 96 40% 1 23.09.2028 -
Emiliano Zambrano Cortulua Aktiv 93 / 106 40% 1 22.09.2028 -
Mamoutou Berthé US Bougouba Aktiv 105 / 109 40% 1 22.09.2028 -
Valentino Huertas Morón Aktiv 97 / 97 40% 3 18.09.2028 -
Matías Cantero All Boys Aktiv 100 / 97 40% 1 15.09.2028 -
Christ Wawa Gefle Aktiv 101 / 112 40% 1 14.09.2028 -
Santos Torrealba Metropolitanos Aktiv 93 / 92 40% 1 14.09.2028 -
Sayfiddin Sodikov Andijon Aktiv 106 / 92 40% 1 11.09.2028 -
Nicolás Nagel Colón Aktiv 104 / 88 40% 1 08.09.2028 -
Lionel Jara Central Córdoba SdE Aktiv 99 / 91 40% 1 07.09.2028 -
Luis Yanes Real Cartagena Aktiv 104 / 92 40% 1 07.09.2028 -
Pau Cubarsí Real Sociedad Aktiv 166 / 159 40% 5 06.09.2028 -
Roberto Medina La Equidad Aktiv 87 / 108 40% 1 06.09.2028 -
Pablo Lago Juventud Aktiv 115 / 118 40% 1 06.09.2028 -
Aleix Febas Andorra Bericht bereit 148 / 135 72% 1 28.08.2028 -
Kamaldeen Atiemo Wa All Stars Aktiv 113 / 112 40% 1 28.08.2028 -
Luciano Posadas Central Córdoba SdE Aktiv 87 / 104 40% 1 21.08.2028 -
Tobías Andrada River Plate Aktiv 111 / 134 40% 1 17.08.2028 -
Thijs Kraaijeveld USM Alger Aktiv 129 / 127 40% 1 15.08.2028 -
Mateo Caballero Defensor Sporting Aktiv 103 / 106 40% 1 15.08.2028 -
David Larrubia Málaga Bericht bereit 132 / 130 72% 1 07.08.2028 -
Joel Ezra Enyimba Aktiv 94 / 97 40% 1 07.08.2028 -
Luis Otávio Orlando City Aktiv 105 / 110 40% 1 07.08.2028 -
Alemão Rayo Vallecano Verloren 145 / 129 69% 1 31.07.2028 -
Tyler Fletcher Rotherham United Aktiv 111 / 130 40% 7 29.07.2028 -
Héctor Fort Real Sociedad Aktiv 152 / 147 40% 11 20.07.2028 -
Felipe Varela Trujillanos Aktiv 94 / 93 40% 1 20.07.2028 -
Ryan Kavuma-McQueen Accrington Stanley Aktiv 126 / 124 40% 1 17.07.2028 -
Josh Nichols Oldham Athletic Verhandlung 126 / 135 40% 7 15.07.2028 -
Riquelme Thompson-Jones Accrington Stanley Aktiv 107 / 128 40% 5 15.07.2028 -
Máximo Munarriz San Telmo Aktiv 100 / 112 40% 1 14.07.2028 -
Carlos Gugenheim Grimsby Town Aktiv 113 / 109 40% 4 10.07.2028 -
Endrick Boca Juniors Aktiv 155 / 168 40% 1 10.07.2028 -
Yassir Zabiri Stade Rennais Aktiv 141 / 153 40% 9 03.07.2028 -
Adrián Niño Málaga Aktiv 127 / 132 40% 5 03.07.2028 -
Ibrahim Fullah Charlton Athletic Aktiv 119 / 129 40% 1 27.06.2028 -
Jake Evans Crewe Alexandra Aktiv 113 / 128 40% 1 27.06.2028 -
Lamine Bèye Portimonense Aktiv 114 / 118 40% 1 26.06.2028 -
Kiani Inge Groningen Aktiv 108 / 115 40% 1 19.06.2028 -
Ayden Heaven Portsmouth Aktiv 147 / 149 40% 6 12.06.2028 -
Radek Vítek Middlesbrough Aktiv 150 / 156 40% 2 08.06.2028 -
Carl Rushworth Aston Villa Aktiv 158 / 162 40% 1 08.06.2028 -
Dean Huijsen Las Palmas Verloren 154 / 154 69% 1 06.06.2028 -
Iván Villar Granada Aktiv 136 / 129 40% 1 05.06.2028 -
Caoimhin Kelleher Brentford Aktiv 159 / 150 40% 1 05.06.2028 -
Jesé Las Palmas Verloren 121 / 115 69% 1 03.06.2028 -
Ignasi Vilarrasa Burgos Verloren 129 / 137 69% 1 02.06.2028 -
Julen Agirrezabala Real Sociedad Verloren 155 / 151 40% 1 01.06.2028 -
Josh Keeley Luton Town Aktiv 145 / 132 40% 1 31.05.2028 -
Anthony Patterson Wrexham Aktiv 145 / 144 40% 1 31.05.2028 -
Leo Castledine Middlesbrough Aktiv 134 / 136 40% 3 30.05.2028 -
Igor Tyjon Barrow AFC Verhandlung 122 / 119 40% 2 30.05.2028 -
Malik Mothersille Stockport County Aktiv 126 / 121 40% 7 29.05.2028 -
Richard Koné Queens Park Rangers Aktiv 132 / 133 40% 2 29.05.2028 -
Jorthy Mokio ADO Den Haag Aktiv 134 / 133 40% 1 29.05.2028 -
Mohamed-Ali Cho Hull City Aktiv 145 / 152 40% 4 26.05.2028 -
William Osula Wrexham Aktiv 143 / 143 40% 9 26.05.2028 -
Andrija Bulatović Chamois Niortais Aktiv 128 / 126 40% 3 26.05.2028 -
Luca Williams-Barnett Walsall Aktiv 123 / 119 40% 5 22.05.2028 -
Benjamin Šeško Manchester United Aktiv 164 / 167 40% 7 22.05.2028 -
Jayden Danns Bradford City Aktiv 142 / 135 40% 5 16.05.2028 -
Chupete Málaga Aktiv 134 / 138 40% 6 13.05.2028 -
Christantus Uche Getafe Aktiv 147 / 134 40% 3 09.05.2028 -
Jorge Cabezas Hurtado Watford Aktiv 126 / 123 40% 3 07.05.2028 -
Luca Koleosho Paris FC Aktiv 133 / 133 40% 7 21.04.2028 -
Kauã Moraes Flamengo Aktiv 129 / 135 40% 3 15.04.2028 -
Alejo Veliz Bahia Aktiv 137 / 134 40% 4 15.04.2028 -
Pablo Felipe West Ham United Aktiv 138 / 143 40% 1 12.04.2028 -
Tyreece Campbell Charlton Athletic Aktiv 132 / 120 40% 1 06.04.2028 -
Josh Acheampong Everton Aktiv 141 / 147 40% 4 04.04.2028 -
Miguel Rodríguez Alavés Aktiv 144 / 149 40% 1 20.03.2028 -
Miro Arsenal Tula Aktiv 131 / 120 40% 1 19.03.2028 -
Izan Merino Málaga Aktiv 130 / 138 40% 5 15.03.2028 -
Lucas Høgsberg RC Strasbourg Aktiv 140 / 153 40% 7 08.03.2028 -
Archie Gray Southampton Aktiv 155 / 157 40% 5 04.03.2028 -
Sam Proctor Salford City Aktiv 120 / 118 40% 1 02.01.2028 -
Gaspar Gijón Aktiv 142 / 145 69% 1 02.06.2027 Befürworten
William Gomes Porto Aktiv 142 / 156 40% 1 01.06.2027 -
Ethan Williams Peterborough United Aktiv 120 / 121 40% 1 31.05.2027 -
Yussif Saidu Zaragoza Aktiv 132 / 120 40% 1 27.05.2027 -
Kazunari Kita Real Sociedad Aktiv 99 / 101 40% 1 26.05.2027 -
Sascha Britschgi AC Milan Aktiv 122 / 135 40% 1 13.05.2027 -
Victor Hernandez Santa Fe Aktiv 123 / 127 40% 3 12.05.2027 -
Jan Bürger Northampton Town Aktiv 104 / 109 40% 1 10.05.2027 -
James Bacca La Equidad Aktiv 118 / 141 40% 1 08.05.2027 -
Riley Owen Stevenage Aktiv 103 / 107 40% 1 07.05.2027 -
Zane Albarus Shrewsbury Town Aktiv 87 / 90 40% 1 06.05.2027 -
Luca Martelli Forli Aktiv 95 / 97 40% 1 03.01.2027 -
Chemsdine Talbi Sunderland Aktiv 139 / 147 40% 8 30.12.2026 -
Nico O'Reilly Manchester City Aktiv 144 / 148 40% 2 30.12.2026 -
Malick Fofana Sunderland Aktiv 135 / 138 40% 2 30.12.2026 -
Kirill Glebov CSKA Moscow Aktiv 141 / 130 40% 3 29.12.2026 -
Ferran Torres Paris Saint-Germain Aktiv 168 / 159 40% 1 29.12.2026 -
Hugo Ekitiké Liverpool Aktiv 170 / 172 40% 4 27.12.2026 -
Othmane Maamma Watford Aktiv 130 / 138 40% 1 27.12.2026 -
João Pedro Chelsea Aktiv 155 / 143 40% 1 27.12.2026 -
Jan Virgili Club Brugge Aktiv 134 / 136 40% 2 22.12.2026 -
Tomás Aranda Boca Juniors Aktiv 109 / 126 40% 9 18.12.2026 -
Didier Dawson Envigado Aktiv 90 / 110 40% 3 16.12.2026 -
Rocco Vata Watford Aktiv 123 / 128 40% 1 16.12.2026 -
Matheus Cunha Manchester United Aktiv 164 / 145 40% 1 14.12.2026 -
Isaac Romero Sevilla Aktiv 141 / 152 40% 1 14.12.2026 -
Kobbie Mainoo Manchester United Aktiv 153 / 159 40% 2 13.12.2026 -
Tristan Degreef Anderlecht Aktiv 125 / 120 40% 5 09.12.2026 -
Joaquín Tobio Burgos Pachuca Aktiv 120 / 112 40% 5 08.12.2026 -
Lucas Varaldo Morelia Aktiv 113 / 134 40% 3 08.12.2026 -
Giovanni Baroni Talleres Aktiv 93 / 110 40% 1 05.12.2026 -
Justo Giani Umraniyespor Aktiv 116 / 135 40% 2 03.12.2026 -
Duk Atlas Aktiv 112 / 129 40% 1 30.11.2026 -
Jonathan Dubasin Osasuna Aktiv 138 / 153 40% 1 30.11.2026 -
Patrick Preciado Deportivo Pasto Aktiv 116 / 97 40% 1 29.11.2026 -
Lautaro Vargas Unión de Santa Fe Aktiv 106 / 128 40% 4 25.11.2026 -
Antoine Semenyo Manchester City Aktiv 162 / 157 40% 1 21.11.2026 -
Ivo Mammini Beitar Jerusalem Aktiv 108 / 133 40% 1 21.11.2026 -
Rayan Cherki Manchester City Aktiv 164 / 159 40% 1 19.11.2026 -
Yael Padilla Tijuana Aktiv 105 / 131 40% 3 12.11.2026 -
Jeremías Merlo Gimnasia La Plata Aktiv 121 / 130 40% 5 06.11.2026 -
Ignacio Russo Tigre Aktiv 136 / 109 40% 2 03.11.2026 -
Ramiro Ruiz Rodríguez Atlético Tucumán Aktiv 122 / 108 40% 1 26.10.2026 -
Alejandro Piedrahita Deportivo Pereira Aktiv 113 / 113 40% 1 25.10.2026 -
Ignacio Perruzzi San Lorenzo Aktiv 130 / 146 40% 2 24.10.2026 -
Nicolás Cordero Aldosivi Aktiv 124 / 135 40% 2 23.10.2026 -
Iliman N'Diaye Everton Aktiv 154 / 169 40% 1 14.10.2026 -
Georginio Rutter Brighton Aktiv 149 / 146 40% 1 13.10.2026 -
Juan Velázquez Belgrano Aktiv 121 / 126 40% 3 11.10.2026 -
Ramiro Hernandes Belgrano Aktiv 108 / 116 40% 2 09.10.2026 -
Bradley Barcola Liverpool Aktiv 164 / 160 40% 1 06.10.2026 -
Valentino Acuña Newell's Old Boys Aktiv 98 / 101 40% 2 24.09.2026 -
Facundo Di Biasi Gimnasia La Plata Aktiv 117 / 119 40% 1 20.09.2026 -
Jeremie Frimpong Liverpool Aktiv 158 / 162 40% 2 17.09.2026 -
Jules Koundé Barcelona Aktiv 150 / 146 40% 2 17.09.2026 -
Dani Vivian Athletic Bilbao Aktiv 152 / 137 40% 1 17.09.2026 -
Sven Botman Newcastle United Aktiv 161 / 153 40% 2 16.09.2026 -
Levi Colwill Chelsea Aktiv 162 / 162 40% 1 16.09.2026 -
Alexis Mac Allister Liverpool Aktiv 156 / 154 40% 1 15.09.2026 -
Joško Gvardiol Manchester City Aktiv 157 / 157 40% 1 14.09.2026 -
Fran García Betis Aktiv 154 / 139 40% 1 13.09.2026 -
Jurriën Timber Arsenal Aktiv 158 / 150 40% 1 13.09.2026 -
Marc Guéhi Manchester City Aktiv 165 / 169 40% 1 12.09.2026 -
Ibrahima Konaté Real Madrid Aktiv 151 / 145 40% 2 11.09.2026 -
Aurélien Tchouaméni Real Madrid Aktiv 162 / 158 40% 1 10.09.2026 -
Trent Alexander-Arnold Real Madrid Aktiv 153 / 148 40% 1 09.09.2026 -
Enzo Fernández Manchester City Aktiv 174 / 165 40% 1 09.09.2026 -
Gonzalo Escudero Racing Club Aktiv 115 / 115 40% 1 02.08.2026 -